sensor_id;sensor_type;location;lat;lon;timestamp;pressure;altitude;pressure_sealevel;temperature;humidity
75447;BME280;64024;55.820;37.574;2023-02-26T00:02:24;96422.16;;;16.38;45.55
75447;BME280;64024;55.820;37.574;2023-02-26T00:04:50;96416.03;;;16.37;45.54
75447;BME280;64024;55.820;37.574;2023-02-26T00:07:16;96425.97;;;16.37;45.48
75447;BME280;64024;55.820;37.574;2023-02-26T00:09:42;96396.47;;;16.37;45.22
75447;BME280;64024;55.820;37.574;2023-02-26T00:12:10;96409.09;;;16.36;45.44
75447;BME280;64024;55.820;37.574;2023-02-26T00:14:37;96397.59;;;16.36;45.19
75447;BME280;64024;55.820;37.574;2023-02-26T00:19:52;96388.44;;;16.37;45.40
75447;BME280;64024;55.820;37.574;2023-02-26T00:22:18;96387.66;;;16.36;45.37
75447;BME280;64024;55.820;37.574;2023-02-26T00:24:44;96367.31;;;16.35;45.13
75447;BME280;64024;55.820;37.574;2023-02-26T00:27:10;96373.31;;;16.32;44.81
75447;BME280;64024;55.820;37.574;2023-02-26T00:29:37;96356.59;;;16.27;44.13
75447;BME280;64024;55.820;37.574;2023-02-26T00:32:03;96355.94;;;16.21;44.21
75447;BME280;64024;55.820;37.574;2023-02-26T00:34:30;96342.88;;;16.20;44.51
75447;BME280;64024;55.820;37.574;2023-02-26T00:39:36;96337.84;;;16.18;44.60
75447;BME280;64024;55.820;37.574;2023-02-26T00:42:06;96334.38;;;16.18;44.31
75447;BME280;64024;55.820;37.574;2023-02-26T00:44:33;96318.59;;;16.16;44.45
75447;BME280;64024;55.820;37.574;2023-02-26T00:52:12;96288.84;;;16.18;44.66
75447;BME280;64024;55.820;37.574;2023-02-26T00:54:39;96286.16;;;16.18;44.82
75447;BME280;64024;55.820;37.574;2023-02-26T00:57:05;96268.47;;;16.16;44.69
75447;BME280;64024;55.820;37.574;2023-02-26T00:59:31;96274.63;;;16.17;44.79
75447;BME280;64024;55.820;37.574;2023-02-26T01:01:57;96274.63;;;16.17;44.67
75447;BME280;64024;55.820;37.574;2023-02-26T01:04:24;96286.44;;;16.16;44.91
75447;BME280;64024;55.820;37.574;2023-02-26T01:06:52;96323.97;;;16.16;44.72
75447;BME280;64024;55.820;37.574;2023-02-26T01:09:31;96311.34;;;16.16;44.92
75447;BME280;64024;55.820;37.574;2023-02-26T01:12:02;96305.19;;;16.16;44.57
75447;BME280;64024;55.820;37.574;2023-02-26T01:14:29;96307.88;;;16.16;44.85
75447;BME280;64024;55.820;37.574;2023-02-26T01:22:54;96292.59;;;16.16;44.46
75447;BME280;64024;55.820;37.574;2023-02-26T01:25:24;96274.94;;;16.15;45.00
75447;BME280;64024;55.820;37.574;2023-02-26T01:27:52;96270.69;;;16.14;44.64
75447;BME280;64024;55.820;37.574;2023-02-26T01:30:19;96276.06;;;16.14;44.60
75447;BME280;64024;55.820;37.574;2023-02-26T01:35:57;96258.84;;;16.24;44.68
75447;BME280;64024;55.820;37.574;2023-02-26T01:38:40;96259.81;;;16.20;44.69
75447;BME280;64024;55.820;37.574;2023-02-26T01:47:11;96245.31;;;16.12;44.63
75447;BME280;64024;55.820;37.574;2023-02-26T01:49:14;96239.19;;;16.11;44.84
75447;BME280;64024;55.820;37.574;2023-02-26T01:51:52;96242.19;;;16.10;44.85
75447;BME280;64024;55.820;37.574;2023-02-26T01:54:24;96224.50;;;16.09;44.80
75447;BME280;64024;55.820;37.574;2023-02-26T01:57:08;96239.81;;;16.08;44.84
75447;BME280;64024;55.820;37.574;2023-02-26T01:59:38;96236.03;;;16.09;44.94
75447;BME280;64024;55.820;37.574;2023-02-26T02:02:07;96229.09;;;16.08;44.74
75447;BME280;64024;55.820;37.574;2023-02-26T02:04:34;96211.44;;;16.07;44.60
75447;BME280;64024;55.820;37.574;2023-02-26T02:07:04;96205.31;;;16.07;44.53
75447;BME280;64024;55.820;37.574;2023-02-26T02:09:31;96197.28;;;16.07;45.08
75447;BME280;64024;55.820;37.574;2023-02-26T02:12:12;96215.25;;;16.06;44.60
75447;BME280;64024;55.820;37.574;2023-02-26T02:15:04;96214.13;;;16.07;44.54
75447;BME280;64024;55.820;37.574;2023-02-26T02:23:35;96197.28;;;16.07;44.68
75447;BME280;64024;55.820;37.574;2023-02-26T02:32:17;96188.75;;;16.05;44.45
75447;BME280;64024;55.820;37.574;2023-02-26T02:34:51;96188.28;;;16.03;44.55
75447;BME280;64024;55.820;37.574;2023-02-26T02:40:33;96200.91;;;16.02;44.45
75447;BME280;64024;55.820;37.574;2023-02-26T02:43:08;96180.25;;;16.03;44.86
75447;BME280;64024;55.820;37.574;2023-02-26T02:45:50;96189.41;;;16.02;44.53
75447;BME280;64024;55.820;37.574;2023-02-26T02:51:00;96172.84;;;16.00;44.45
75447;BME280;64024;55.820;37.574;2023-02-26T02:54:23;96162.91;;;16.00;44.53
75447;BME280;64024;55.820;37.574;2023-02-26T02:56:31;96168.28;;;16.00;44.47
75447;BME280;64024;55.820;37.574;2023-02-26T02:59:20;96164.03;;;15.99;44.51
75447;BME280;64024;55.820;37.574;2023-02-26T03:01:58;96160.56;;;15.99;44.53
75447;BME280;64024;55.820;37.574;2023-02-26T03:04:25;96160.56;;;15.99;44.31
75447;BME280;64024;55.820;37.574;2023-02-26T03:06:52;96158.22;;;15.97;44.67
75447;BME280;64024;55.820;37.574;2023-02-26T03:09:17;96161.69;;;15.98;44.97
75447;BME280;64024;55.820;37.574;2023-02-26T03:11:43;96153.66;;;15.98;44.75
75447;BME280;64024;55.820;37.574;2023-02-26T03:14:10;96136.78;;;15.97;44.57
75447;BME280;64024;55.820;37.574;2023-02-26T03:19:29;96152.34;;;16.04;45.20
75447;BME280;64024;55.820;37.574;2023-02-26T03:27:38;96152.06;;;16.05;45.62
75447;BME280;64024;55.820;37.574;2023-02-26T03:30:51;96139.28;;;16.02;45.98
75447;BME280;64024;55.820;37.574;2023-02-26T03:33:27;96148.44;;;16.01;46.10
75447;BME280;64024;55.820;37.574;2023-02-26T03:41:31;96145.28;;;15.99;46.29
75447;BME280;64024;55.820;37.574;2023-02-26T03:44:02;96154.44;;;15.98;46.05
75447;BME280;64024;55.820;37.574;2023-02-26T03:46:38;96165.94;;;15.99;46.10
75447;BME280;64024;55.820;37.574;2023-02-26T03:49:17;96157.88;;;15.99;46.33
75447;BME280;64024;55.820;37.574;2023-02-26T03:51:45;96152.53;;;15.99;46.09
75447;BME280;64024;55.820;37.574;2023-02-26T03:54:21;96157.88;;;15.99;46.06
75447;BME280;64024;55.820;37.574;2023-02-26T03:56:49;96165.94;;;15.99;45.99
75447;BME280;64024;55.820;37.574;2023-02-26T03:59:16;96157.09;;;15.98;46.17
75447;BME280;64024;55.820;37.574;2023-02-26T04:04:16;96161.34;;;15.99;46.04
75447;BME280;64024;55.820;37.574;2023-02-26T04:06:43;96157.56;;;16.00;46.25
75447;BME280;64024;55.820;37.574;2023-02-26T04:09:10;96162.91;;;16.00;46.08
75447;BME280;64024;55.820;37.574;2023-02-26T04:11:37;96170.94;;;16.00;46.34
75447;BME280;64024;55.820;37.574;2023-02-26T04:14:04;96177.91;;;16.01;46.26
75447;BME280;64024;55.820;37.574;2023-02-26T04:16:30;96179.00;;;16.00;46.24
75447;BME280;64024;55.820;37.574;2023-02-26T04:18:56;96188.63;;;16.01;46.07
75447;BME280;64024;55.820;37.574;2023-02-26T04:21:22;96193.97;;;16.01;46.14
75447;BME280;64024;55.820;37.574;2023-02-26T04:23:48;96185.94;;;16.01;46.28
75447;BME280;64024;55.820;37.574;2023-02-26T04:26:14;96183.25;;;16.01;46.06
75447;BME280;64024;55.820;37.574;2023-02-26T04:28:40;96203.59;;;16.02;46.25
75447;BME280;64024;55.820;37.574;2023-02-26T04:31:07;96194.75;;;16.02;45.77
75447;BME280;64024;55.820;37.574;2023-02-26T04:33:33;96202.81;;;16.02;46.26
75447;BME280;64024;55.820;37.574;2023-02-26T04:36:00;96207.03;;;16.03;45.84
75447;BME280;64024;55.820;37.574;2023-02-26T04:38:26;96212.41;;;16.03;46.00
75447;BME280;64024;55.820;37.574;2023-02-26T04:40:53;96219.66;;;16.02;46.15
75447;BME280;64024;55.820;37.574;2023-02-26T04:43:19;96223.13;;;16.03;46.38
75447;BME280;64024;55.820;37.574;2023-02-26T04:45:46;96234.63;;;16.03;46.21
75447;BME280;64024;55.820;37.574;2023-02-26T04:48:13;96237.28;;;16.03;45.99
75447;BME280;64024;55.820;37.574;2023-02-26T04:50:40;96239.97;;;16.03;45.96
75447;BME280;64024;55.820;37.574;2023-02-26T04:53:06;96249.91;;;16.03;45.83
75447;BME280;64024;55.820;37.574;2023-02-26T04:55:33;96244.53;;;16.03;46.02
75447;BME280;64024;55.820;37.574;2023-02-26T04:57:59;96253.03;;;16.05;46.32
75447;BME280;64024;55.820;37.574;2023-02-26T05:00:25;96257.63;;;16.04;47.00
75447;BME280;64024;55.820;37.574;2023-02-26T05:02:51;96258.88;;;16.07;46.76
75447;BME280;64024;55.820;37.574;2023-02-26T05:05:17;96256.19;;;16.07;46.94
75447;BME280;64024;55.820;37.574;2023-02-26T05:07:42;96271.16;;;16.08;46.98
75447;BME280;64024;55.820;37.574;2023-02-26T05:10:09;96281.09;;;16.07;47.22
75447;BME280;64024;55.820;37.574;2023-02-26T05:12:35;96290.69;;;16.08;46.89
75447;BME280;64024;55.820;37.574;2023-02-26T05:15:02;96293.38;;;16.08;47.32
75447;BME280;64024;55.820;37.574;2023-02-26T05:17:28;96298.75;;;16.08;47.15
75447;BME280;64024;55.820;37.574;2023-02-26T05:19:54;96305.69;;;16.09;47.22
75447;BME280;64024;55.820;37.574;2023-02-26T05:22:20;96311.84;;;16.10;47.00
75447;BME280;64024;55.820;37.574;2023-02-26T05:24:46;96312.63;;;16.10;47.12
75447;BME280;64024;55.820;37.574;2023-02-26T05:27:13;96320.66;;;16.10;47.45
75447;BME280;64024;55.820;37.574;2023-02-26T05:29:39;96321.44;;;16.11;47.03
75447;BME280;64024;55.820;37.574;2023-02-26T05:32:06;96325.69;;;16.12;47.03
75447;BME280;64024;55.820;37.574;2023-02-26T05:34:32;96321.91;;;16.13;47.17
75447;BME280;64024;55.820;37.574;2023-02-26T05:36:58;96325.41;;;16.13;47.28
75447;BME280;64024;55.820;37.574;2023-02-26T05:39:24;96339.56;;;16.14;47.04
75447;BME280;64024;55.820;37.574;2023-02-26T05:41:50;96334.22;;;16.14;47.24
75447;BME280;64024;55.820;37.574;2023-02-26T05:44:17;96347.63;;;16.14;47.25
75447;BME280;64024;55.820;37.574;2023-02-26T05:46:43;96337.69;;;16.14;47.01
75447;BME280;64024;55.820;37.574;2023-02-26T05:49:09;96341.94;;;16.15;46.83
75447;BME280;64024;55.820;37.574;2023-02-26T05:51:35;96354.22;;;16.16;47.09
75447;BME280;64024;55.820;37.574;2023-02-26T05:54:01;96358.78;;;16.16;46.97
75447;BME280;64024;55.820;37.574;2023-02-26T05:56:26;96369.22;;;16.18;46.67
75447;BME280;64024;55.820;37.574;2023-02-26T05:58:53;96366.53;;;16.18;46.70
75447;BME280;64024;55.820;37.574;2023-02-26T06:01:19;96372.69;;;16.18;46.95
75447;BME280;64024;55.820;37.574;2023-02-26T06:03:45;96368.09;;;16.19;46.65
75447;BME280;64024;55.820;37.574;2023-02-26T06:06:13;96374.25;;;16.19;46.55
75447;BME280;64024;55.820;37.574;2023-02-26T06:08:42;96371.25;;;16.21;46.53
75447;BME280;64024;55.820;37.574;2023-02-26T06:11:08;96372.03;;;16.21;46.67
75447;BME280;64024;55.820;37.574;2023-02-26T06:13:35;96378.97;;;16.22;46.35
75447;BME280;64024;55.820;37.574;2023-02-26T06:16:00;96375.97;;;16.24;46.38
75447;BME280;64024;55.820;37.574;2023-02-26T06:18:26;96385.91;;;16.23;46.09
75447;BME280;64024;55.820;37.574;2023-02-26T06:20:52;96384.50;;;16.26;46.20
75447;BME280;64024;55.820;37.574;2023-02-26T06:23:18;96378.81;;;16.27;46.52
75447;BME280;64024;55.820;37.574;2023-02-26T06:25:44;96383.06;;;16.28;46.07
75447;BME280;64024;55.820;37.574;2023-02-26T06:28:10;96390.00;;;16.29;45.97
75447;BME280;64024;55.820;37.574;2023-02-26T06:30:36;96393.16;;;16.31;45.82
75447;BME280;64024;55.820;37.574;2023-02-26T06:33:02;96391.28;;;16.32;46.17
75447;BME280;64024;55.820;37.574;2023-02-26T06:35:28;96396.31;;;16.33;45.94
75447;BME280;64024;55.820;37.574;2023-02-26T06:37:55;96399.47;;;16.35;45.87
75447;BME280;64024;55.820;37.574;2023-02-26T06:40:21;96401.84;;;16.37;45.62
75447;BME280;64024;55.820;37.574;2023-02-26T06:42:47;96405.00;;;16.39;46.24
75447;BME280;64024;55.820;37.574;2023-02-26T06:45:13;96408.94;;;16.41;45.87
75447;BME280;64024;55.820;37.574;2023-02-26T06:47:39;96417.47;;;16.44;45.78
75447;BME280;64024;55.820;37.574;2023-02-26T06:50:05;96415.56;;;16.44;45.81
75447;BME280;64024;55.820;37.574;2023-02-26T06:52:31;96423.78;;;16.48;45.45
75447;BME280;64024;55.820;37.574;2023-02-26T06:54:57;96424.22;;;16.50;45.87
75447;BME280;64024;55.820;37.574;2023-02-26T06:57:23;96421.25;;;16.51;45.68
75447;BME280;64024;55.820;37.574;2023-02-26T06:59:49;96428.63;;;16.54;45.91
75447;BME280;64024;55.820;37.574;2023-02-26T07:02:18;96431.03;;;16.56;45.73
75447;BME280;64024;55.820;37.574;2023-02-26T07:04:44;96430.41;;;16.59;45.55
75447;BME280;64024;55.820;37.574;2023-02-26T07:07:11;96437.34;;;16.60;45.49
75447;BME280;64024;55.820;37.574;2023-02-26T07:09:37;96440.47;;;16.62;45.19
75447;BME280;64024;55.820;37.574;2023-02-26T07:12:03;96436.38;;;16.64;45.19
75447;BME280;64024;55.820;37.574;2023-02-26T07:14:29;96446.78;;;16.66;45.33
75447;BME280;64024;55.820;37.574;2023-02-26T07:16:55;96458.00;;;16.68;45.19
75447;BME280;64024;55.820;37.574;2023-02-26T07:19:21;96448.53;;;16.71;45.28
75447;BME280;64024;55.820;37.574;2023-02-26T07:21:46;96458.16;;;16.72;45.00
75447;BME280;64024;55.820;37.574;2023-02-26T07:24:13;96464.81;;;16.74;44.98
75447;BME280;64024;55.820;37.574;2023-02-26T07:26:39;96452.97;;;16.75;45.07
75447;BME280;64024;55.820;37.574;2023-02-26T07:29:05;96466.88;;;16.77;44.92
75447;BME280;64024;55.820;37.574;2023-02-26T07:31:31;96469.22;;;16.79;44.76
75447;BME280;64024;55.820;37.574;2023-02-26T07:33:57;96470.81;;;16.80;44.54
75447;BME280;64024;55.820;37.574;2023-02-26T07:36:23;96459.75;;;16.81;44.64
75447;BME280;64024;55.820;37.574;2023-02-26T07:38:48;96462.91;;;16.83;44.53
75447;BME280;64024;55.820;37.574;2023-02-26T07:41:14;96472.53;;;16.84;44.74
75447;BME280;64024;55.820;37.574;2023-02-26T07:43:40;96486.41;;;16.86;44.47
75447;BME280;64024;55.820;37.574;2023-02-26T07:46:07;96475.41;;;16.88;44.50
75447;BME280;64024;55.820;37.574;2023-02-26T07:48:33;96469.38;;;16.91;44.38
75447;BME280;64024;55.820;37.574;2023-02-26T07:50:59;96483.28;;;16.93;44.37
75447;BME280;64024;55.820;37.574;2023-02-26T07:53:25;96482.94;;;16.95;44.27
75447;BME280;64024;55.820;37.574;2023-02-26T07:55:51;96484.22;;;16.97;44.15
75447;BME280;64024;55.820;37.574;2023-02-26T07:58:17;96488.94;;;17.00;44.16
75447;BME280;64024;55.820;37.574;2023-02-26T08:00:43;96499.38;;;17.02;44.06
75447;BME280;64024;55.820;37.574;2023-02-26T08:03:09;96494.94;;;17.06;44.18
75447;BME280;64024;55.820;37.574;2023-02-26T08:05:35;96496.19;;;17.08;44.14
75447;BME280;64024;55.820;37.574;2023-02-26T08:08:01;96499.97;;;17.07;44.01
75447;BME280;64024;55.820;37.574;2023-02-26T08:10:28;96501.56;;;17.08;43.97
75447;BME280;64024;55.820;37.574;2023-02-26T08:12:54;96479.47;;;17.11;44.08
75447;BME280;64024;55.820;37.574;2023-02-26T08:15:20;96508.69;;;17.13;44.20
75447;BME280;64024;55.820;37.574;2023-02-26T08:17:46;96516.41;;;17.14;43.97
75447;BME280;64024;55.820;37.574;2023-02-26T08:20:13;96516.06;;;17.16;43.97
75447;BME280;64024;55.820;37.574;2023-02-26T08:22:49;96521.59;;;17.20;43.89
75447;BME280;64024;55.820;37.574;2023-02-26T08:25:16;96531.72;;;17.23;43.74
75447;BME280;64024;55.820;37.574;2023-02-26T08:27:42;96529.47;;;17.25;43.63
75447;BME280;64024;55.820;37.574;2023-02-26T08:30:09;96535.34;;;17.27;43.63
75447;BME280;64024;55.820;37.574;2023-02-26T08:32:36;96541.97;;;17.29;43.67
75447;BME280;64024;55.820;37.574;2023-02-26T08:35:01;96550.50;;;17.31;43.59
75447;BME280;64024;55.820;37.574;2023-02-26T08:37:27;96546.38;;;17.34;43.51
75447;BME280;64024;55.820;37.574;2023-02-26T08:39:53;96546.06;;;17.35;43.40
75447;BME280;64024;55.820;37.574;2023-02-26T08:42:19;96552.69;;;17.38;43.40
75447;BME280;64024;55.820;37.574;2023-02-26T08:44:46;96539.41;;;17.42;43.39
75447;BME280;64024;55.820;37.574;2023-02-26T08:47:12;96549.84;;;17.43;43.26
75447;BME280;64024;55.820;37.574;2023-02-26T08:49:38;96566.91;;;17.47;43.21
75447;BME280;64024;55.820;37.574;2023-02-26T08:52:04;96582.38;;;17.50;43.04
75447;BME280;64024;55.820;37.574;2023-02-26T08:54:31;96560.25;;;17.53;42.99
75447;BME280;64024;55.820;37.574;2023-02-26T08:56:57;96577.31;;;17.57;42.90
75447;BME280;64024;55.820;37.574;2023-02-26T08:59:23;96588.97;;;17.61;42.87
75447;BME280;64024;55.820;37.574;2023-02-26T09:01:50;96568.78;;;17.64;42.71
75447;BME280;64024;55.820;37.574;2023-02-26T09:04:16;96592.31;;;17.67;42.69
75447;BME280;64024;55.820;37.574;2023-02-26T09:06:42;96585.50;;;17.70;42.42
75447;BME280;64024;55.820;37.574;2023-02-26T09:09:12;96586.78;;;17.72;42.45
75447;BME280;64024;55.820;37.574;2023-02-26T09:11:39;96609.03;;;17.73;42.26
75447;BME280;64024;55.820;37.574;2023-02-26T09:14:09;96601.78;;;17.73;42.28
75447;BME280;64024;55.820;37.574;2023-02-26T09:16:36;96605.25;;;17.74;42.13
75447;BME280;64024;55.820;37.574;2023-02-26T09:19:04;96618.41;;;17.75;42.00
75447;BME280;64024;55.820;37.574;2023-02-26T09:21:30;96620.28;;;17.75;41.97
75447;BME280;64024;55.820;37.574;2023-02-26T09:23:56;96626.72;;;17.74;41.98
75447;BME280;64024;55.820;37.574;2023-02-26T09:26:22;96635.59;;;17.74;41.75
75447;BME280;64024;55.820;37.574;2023-02-26T09:28:48;96638.59;;;17.73;41.73
75447;BME280;64024;55.820;37.574;2023-02-26T09:31:13;96639.06;;;17.75;41.61
75447;BME280;64024;55.820;37.574;2023-02-26T09:33:39;96635.31;;;17.76;41.23
75447;BME280;64024;55.820;37.574;2023-02-26T09:36:06;96633.06;;;17.78;41.58
75447;BME280;64024;55.820;37.574;2023-02-26T09:38:32;96646.22;;;17.79;41.60
75447;BME280;64024;55.820;37.574;2023-02-26T09:41:08;96658.97;;;17.82;41.53
75447;BME280;64024;55.820;37.574;2023-02-26T09:44:22;96663.09;;;17.88;41.63
75447;BME280;64024;55.820;37.574;2023-02-26T09:47:02;96651.25;;;17.89;41.58
75447;BME280;64024;55.820;37.574;2023-02-26T09:52:32;96666.41;;;17.94;41.09
75447;BME280;64024;55.820;37.574;2023-02-26T09:55:16;96661.03;;;17.94;40.88
75447;BME280;64024;55.820;37.574;2023-02-26T09:57:46;96668.78;;;17.96;40.87
75447;BME280;64024;55.820;37.574;2023-02-26T10:03:15;96665.47;;;17.90;39.21
75447;BME280;64024;55.820;37.574;2023-02-26T10:11:52;96667.19;;;17.69;38.64
75447;BME280;64024;55.820;37.574;2023-02-26T10:16:58;96666.25;;;17.64;39.11
75447;BME280;64024;55.820;37.574;2023-02-26T10:19:33;96663.56;;;17.64;39.39
75447;BME280;64024;55.820;37.574;2023-02-26T10:22:30;96680.13;;;17.67;40.04
75447;BME280;64024;55.820;37.574;2023-02-26T10:25:02;96689.00;;;17.67;39.88
75447;BME280;64024;55.820;37.574;2023-02-26T10:27:41;96686.31;;;17.67;40.09
75447;BME280;64024;55.820;37.574;2023-02-26T10:33:01;96690.25;;;17.70;40.44
75447;BME280;64024;55.820;37.574;2023-02-26T10:35:31;96691.03;;;17.70;40.46
75447;BME280;64024;55.820;37.574;2023-02-26T10:38:23;96696.13;;;17.72;40.45
75447;BME280;64024;55.820;37.574;2023-02-26T10:41:01;96701.94;;;17.74;40.62
75447;BME280;64024;55.820;37.574;2023-02-26T10:46:37;96697.09;;;17.76;40.82
75447;BME280;64024;55.820;37.574;2023-02-26T10:51:40;96695.97;;;17.77;40.89
75447;BME280;64024;55.820;37.574;2023-02-26T10:54:18;96710.97;;;17.78;41.09
75447;BME280;64024;55.820;37.574;2023-02-26T10:56:46;96705.59;;;17.78;41.33
75447;BME280;64024;55.820;37.574;2023-02-26T10:59:12;96703.72;;;17.78;41.05
75447;BME280;64024;55.820;37.574;2023-02-26T11:01:38;96711.47;;;17.80;41.14
75447;BME280;64024;55.820;37.574;2023-02-26T11:04:20;96710.34;;;17.81;40.94
75447;BME280;64024;55.820;37.574;2023-02-26T11:06:51;96711.16;;;17.81;41.19
75447;BME280;64024;55.820;37.574;2023-02-26T11:09:42;96710.03;;;17.82;41.22
75447;BME280;64024;55.820;37.574;2023-02-26T11:12:13;96704.97;;;17.81;41.01
75447;BME280;64024;55.820;37.574;2023-02-26T11:14:46;96724.91;;;17.80;41.06
75447;BME280;64024;55.820;37.574;2023-02-26T11:17:18;96720.63;;;17.79;41.21
75447;BME280;64024;55.820;37.574;2023-02-26T11:19:56;96724.13;;;17.79;41.15
75447;BME280;64024;55.820;37.574;2023-02-26T11:22:29;96722.84;;;17.77;41.16
75447;BME280;64024;55.820;37.574;2023-02-26T11:24:57;96729.31;;;17.76;41.12
75447;BME280;64024;55.820;37.574;2023-02-26T11:27:31;96724.25;;;17.74;41.30
75447;BME280;64024;55.820;37.574;2023-02-26T11:30:04;96721.56;;;17.74;41.43
75447;BME280;64024;55.820;37.574;2023-02-26T11:32:33;96728.06;;;17.82;41.33
75447;BME280;64024;55.820;37.574;2023-02-26T11:34:59;96723.63;;;17.77;41.25
75447;BME280;64024;55.820;37.574;2023-02-26T11:37:33;96723.16;;;17.75;41.53
75447;BME280;64024;55.820;37.574;2023-02-26T11:40:05;96731.81;;;17.72;41.73
75447;BME280;64024;55.820;37.574;2023-02-26T11:43:04;96722.97;;;17.72;42.05
75447;BME280;64024;55.820;37.574;2023-02-26T11:45:29;96732.31;;;17.74;42.04
75447;BME280;64024;55.820;37.574;2023-02-26T11:48:02;96730.91;;;17.77;42.52
75447;BME280;64024;55.820;37.574;2023-02-26T11:50:30;96728.69;;;17.79;42.50
75447;BME280;64024;55.820;37.574;2023-02-26T11:53:05;96735.00;;;17.83;42.72
75447;BME280;64024;55.820;37.574;2023-02-26T11:55:36;96738.16;;;17.85;42.67
75447;BME280;64024;55.820;37.574;2023-02-26T11:58:17;96739.91;;;17.89;42.83
75447;BME280;64024;55.820;37.574;2023-02-26T12:00:44;96745.44;;;17.93;42.70
75447;BME280;64024;55.820;37.574;2023-02-26T12:03:17;96746.72;;;17.96;42.89
75447;BME280;64024;55.820;37.574;2023-02-26T12:05:44;96745.78;;;18.00;43.01
75447;BME280;64024;55.820;37.574;2023-02-26T12:08:18;96742.91;;;18.05;42.97
75447;BME280;64024;55.820;37.574;2023-02-26T12:13:31;96744.81;;;18.13;42.92
75447;BME280;64024;55.820;37.574;2023-02-26T12:16:23;96750.34;;;18.17;42.87
75447;BME280;64024;55.820;37.574;2023-02-26T12:19:15;96756.34;;;18.23;42.84
75447;BME280;64024;55.820;37.574;2023-02-26T12:24:35;96750.63;;;18.24;42.81
75447;BME280;64024;55.820;37.574;2023-02-26T12:27:13;96765.66;;;18.25;42.75
75447;BME280;64024;55.820;37.574;2023-02-26T12:43:33;96786.22;;;18.30;42.62
75447;BME280;64024;55.820;37.574;2023-02-26T12:46:26;96790.47;;;18.31;42.73
75447;BME280;64024;55.820;37.574;2023-02-26T12:52:11;96785.44;;;18.29;42.48
75447;BME280;64024;55.820;37.574;2023-02-26T12:58:02;96803.78;;;18.27;42.42
75447;BME280;64024;55.820;37.574;2023-02-26T13:03:42;96810.09;;;18.23;42.49
75447;BME280;64024;55.820;37.574;2023-02-26T13:06:31;96813.41;;;18.20;42.42
75447;BME280;64024;55.820;37.574;2023-02-26T13:12:05;96815.81;;;18.12;42.36
75447;BME280;64024;55.820;37.574;2023-02-26T13:17:46;96822.91;;;18.08;42.36
75447;BME280;64024;55.820;37.574;2023-02-26T13:20:24;96840.47;;;18.06;42.39
75447;BME280;64024;55.820;37.574;2023-02-26T13:22:59;96845.66;;;18.02;42.39
75447;BME280;64024;55.820;37.574;2023-02-26T13:28:45;96852.78;;;17.98;42.52
75447;BME280;64024;55.820;37.574;2023-02-26T13:34:00;96864.78;;;17.92;42.34
75447;BME280;64024;55.820;37.574;2023-02-26T13:36:28;96872.69;;;17.88;42.52
75447;BME280;64024;55.820;37.574;2023-02-26T13:50:46;96907.09;;;17.78;42.58
75447;BME280;64024;55.820;37.574;2023-02-26T13:55:53;96902.94;;;17.72;42.77
75447;BME280;64024;55.820;37.574;2023-02-26T14:01:05;96923.47;;;17.68;42.85
75447;BME280;64024;55.820;37.574;2023-02-26T14:03:40;96923.00;;;17.65;42.85
75447;BME280;64024;55.820;37.574;2023-02-26T14:08:53;96917.75;;;17.60;42.54
75447;BME280;64024;55.820;37.574;2023-02-26T14:11:33;96922.66;;;17.58;42.76
75447;BME280;64024;55.820;37.574;2023-02-26T14:35:40;96983.34;;;17.37;42.51
75447;BME280;64024;55.820;37.574;2023-02-26T14:38:20;96961.22;;;17.31;42.54
75447;BME280;64024;55.820;37.574;2023-02-26T14:40:49;96993.75;;;17.30;42.59
75447;BME280;64024;55.820;37.574;2023-02-26T14:43:26;96980.16;;;17.26;42.62
75447;BME280;64024;55.820;37.574;2023-02-26T14:45:55;96999.22;;;17.25;42.65
75447;BME280;64024;55.820;37.574;2023-02-26T14:48:22;96986.72;;;17.20;42.37
75447;BME280;64024;55.820;37.574;2023-02-26T15:04:55;97005.59;;;17.06;42.57
75447;BME280;64024;55.820;37.574;2023-02-26T15:15:36;97049.56;;;16.97;42.72
75447;BME280;64024;55.820;37.574;2023-02-26T15:23:59;97052.16;;;16.88;42.70
75447;BME280;64024;55.820;37.574;2023-02-26T15:26:27;97063.69;;;16.88;42.56
75447;BME280;64024;55.820;37.574;2023-02-26T15:28:55;97051.19;;;16.84;42.69
75447;BME280;64024;55.820;37.574;2023-02-26T15:31:30;97065.97;;;16.81;42.52
75447;BME280;64024;55.820;37.574;2023-02-26T15:33:57;97077.81;;;16.80;43.16
75447;BME280;64024;55.820;37.574;2023-02-26T15:36:23;97078.88;;;16.79;42.71
75447;BME280;64024;55.820;37.574;2023-02-26T15:38:59;97079.97;;;16.78;42.85
75447;BME280;64024;55.820;37.574;2023-02-26T15:41:30;97097.66;;;16.79;43.26
75447;BME280;64024;55.820;37.574;2023-02-26T15:44:06;97083.47;;;16.79;43.46
75447;BME280;64024;55.820;37.574;2023-02-26T15:46:37;97089.91;;;16.78;43.28
75447;BME280;64024;55.820;37.574;2023-02-26T15:49:09;97097.97;;;16.78;43.14
75447;BME280;64024;55.820;37.574;2023-02-26T15:51:39;97111.38;;;16.78;43.13
75447;BME280;64024;55.820;37.574;2023-02-26T15:54:05;97102.53;;;16.77;43.15
75447;BME280;64024;55.820;37.574;2023-02-26T15:56:36;97100.97;;;16.76;43.15
75447;BME280;64024;55.820;37.574;2023-02-26T15:59:16;97108.22;;;16.76;43.42
75447;BME280;64024;55.820;37.574;2023-02-26T16:01:43;97123.81;;;16.74;43.11
75447;BME280;64024;55.820;37.574;2023-02-26T16:04:14;97120.63;;;16.72;43.28
75447;BME280;64024;55.820;37.574;2023-02-26T16:06:51;97116.31;;;16.71;43.42
75447;BME280;64024;55.820;37.574;2023-02-26T16:09:29;97120.09;;;16.70;43.52
75447;BME280;64024;55.820;37.574;2023-02-26T16:11:58;97117.72;;;16.68;43.84
75447;BME280;64024;55.820;37.574;2023-02-26T16:14:29;97118.00;;;16.66;43.95
75447;BME280;64024;55.820;37.574;2023-02-26T16:16:56;97126.06;;;16.66;43.82
75447;BME280;64024;55.820;37.574;2023-02-26T16:19:33;97136.50;;;16.68;44.17